MST,Max TemperatureF,Mean TemperatureF,Min TemperatureF,Max Dew PointF,MeanDew PointF,Min DewpointF,Max Humidity, Mean Humidity, Min Humidity, Max Sea Level PressureIn, Mean Sea Level PressureIn, Min Sea Level PressureIn, Max VisibilityMiles, Mean VisibilityMiles, Min VisibilityMiles, Max Wind SpeedMPH, Mean Wind SpeedMPH, Max Gust SpeedMPH,PrecipitationIn, CloudCover, Events, WindDirDegrees
2013-11-1,50,39,28,27,22,18,75,49,32,30.16,30.10,29.97,10,10,10,18,6,26,0.00,0,,242
2013-11-2,60,48,35,27,22,19,56,40,20,30.12,29.86,29.60,10,10,10,18,9,24,0.00,1,,194
2013-11-3,44,38,32,32,21,10,93,56,31,29.86,29.69,29.58,10,10,10,18,9,25,0.00,4,,319
2013-11-4,37,27,17,25,14,9,93,56,33,30.03,29.92,29.87,10,10,4,14,8,23,0.00,5,,331
2013-11-5,37,26,15,16,12,7,93,50,30,30.07,30.03,29.99,10,10,10,28,9,41,0.01,1,,247
2013-11-6,44,37,30,23,19,16,64,47,36,30.28,30.16,30.05,10,10,10,22,11,34,0.01,2,,266
2013-11-7,50,38,26,36,25,18,80,55,40,30.28,30.06,29.73,10,10,10,16,5,25,0.00,3,,162
2013-11-8,51,40,30,36,24,16,93,51,28,29.99,29.85,29.68,10,10,10,25,9,39,0.01,3,,262
2013-11-9,44,36,28,25,23,19,80,59,39,30.19,30.13,30.00,10,10,10,10,4,16,0.00,5,,7
2013-11-10,60,43,26,34,27,23,93,57,31,30.17,30.13,30.10,10,10,2,17,6,21,0.00,2,,296
2013-11-11,39,32,24,30,26,23,100,82,65,30.49,30.36,30.17,10,8,0,14,8,21,0.00,4,,31
2013-11-12,59,40,21,34,27,18,100,70,36,30.49,30.39,30.27,10,10,7,10,2,,0.00,0,,28
2013-11-13,57,46,35,34,27,25,65,45,33,30.26,30.14,30.07,10,10,10,23,7,33,0.00,3,,274
2013-11-14,51,38,26,27,21,16,80,47,26,30.13,29.90,29.69,10,10,10,17,6,28,0.00,0,,282
2013-11-15,44,37,30,23,17,12,64,41,29,29.69,29.52,29.38,10,10,10,29,12,41,0.04,1,,252
2013-11-16,44,35,26,27,18,12,93,53,31,29.48,29.31,29.22,10,10,3,24,12,37,0.00,4,,253
2013-11-17,39,32,24,18,14,9,60,44,33,29.95,29.79,29.49,10,10,10,24,12,37,0.00,1,,248
2013-11-18,55,42,30,19,16,9,44,32,22,30.00,29.93,29.80,10,10,10,18,12,29,0.00,0,,227
2013-11-19,55,45,35,27,24,16,46,39,31,29.79,29.70,29.65,10,10,10,23,10,34,0.00,2,,246
2013-11-20,44,26,8,27,14,3,92,69,46,30.22,29.89,29.70,10,6,0,28,11,34,0.00,6,,12
2013-11-21,17,8,-2,10,4,-6,100,85,73,30.44,30.35,30.19,10,10,3,8,4,,0.00,2,,165
2013-11-22,23,10,-2,12,4,-6,100,78,58,30.53,30.48,30.40,10,10,7,7,2,,0.00,0,,176
2013-11-23,30,18,6,18,10,1,93,77,59,30.52,30.40,30.19,10,10,7,9,2,,0.00,0,,187
2013-11-24,37,24,10,23,15,5,93,68,52,30.18,30.08,30.02,10,10,9,9,2,,0.00,1,,185
2013-11-25,37,29,21,23,19,16,80,67,52,30.35,30.25,30.15,10,10,10,10,3,,0.00,2,,178
2013-11-26,44,30,15,28,22,12,100,77,43,30.34,30.26,30.13,10,10,10,12,3,18,0.00,0,,52
2013-11-27,48,37,26,28,25,21,86,66,43,30.12,30.08,30.04,10,10,10,8,4,,0.00,0,,87
2013-11-28,44,32,21,30,25,18,93,76,49,30.11,30.07,30.02,10,10,10,8,2,,0.00,0,,87
2013-11-29,55,44,32,30,23,19,81,44,28,30.11,30.07,30.03,10,10,10,17,7,29,0.01,0,,271
2013-11-30,50,44,37,27,23,21,56,44,34,30.16,30.10,30.07,10,10,10,22,7,32,0.00,3,,278